sensor_id;sensor_type;location;lat;lon;timestamp;pressure;altitude;pressure_sealevel;temperature;humidity
46267;BME280;31998;48.798;15.066;2022-12-29T00:01:52;95637.13;;;-3.36;100.00
46267;BME280;31998;48.798;15.066;2022-12-29T00:04:18;95668.88;;;-3.24;100.00
46267;BME280;31998;48.798;15.066;2022-12-29T00:06:44;95709.13;;;-2.97;100.00
46267;BME280;31998;48.798;15.066;2022-12-29T00:09:13;95631.25;;;-3.51;100.00
46267;BME280;31998;48.798;15.066;2022-12-29T00:11:40;95695.41;;;-3.13;100.00
46267;BME280;31998;48.798;15.066;2022-12-29T00:14:07;95663.81;;;-3.26;100.00
46267;BME280;31998;48.798;15.066;2022-12-29T00:16:52;95746.56;;;-2.69;100.00
46267;BME280;31998;48.798;15.066;2022-12-29T00:19:17;95699.44;;;-3.04;100.00
46267;BME280;31998;48.798;15.066;2022-12-29T00:22:01;95654.28;;;-3.27;100.00
46267;BME280;31998;48.798;15.066;2022-12-29T00:24:45;95680.00;;;-3.16;100.00
46267;BME280;31998;48.798;15.066;2022-12-29T00:27:30;95711.34;;;-3.01;100.00
46267;BME280;31998;48.798;15.066;2022-12-29T00:30:19;95729.75;;;-2.75;100.00
46267;BME280;31998;48.798;15.066;2022-12-29T00:33:13;95752.84;;;-2.70;100.00
46267;BME280;31998;48.798;15.066;2022-12-29T00:36:13;95744.13;;;-2.70;100.00
46267;BME280;31998;48.798;15.066;2022-12-29T00:38:45;95730.78;;;-2.89;100.00
46267;BME280;31998;48.798;15.066;2022-12-29T00:41:30;95734.44;;;-2.90;100.00
46267;BME280;31998;48.798;15.066;2022-12-29T00:44:14;95720.69;;;-2.98;100.00
46267;BME280;31998;48.798;15.066;2022-12-29T00:46:41;95735.25;;;-2.89;100.00
46267;BME280;31998;48.798;15.066;2022-12-29T00:49:09;95729.59;;;-2.86;100.00
46267;BME280;31998;48.798;15.066;2022-12-29T00:51:54;95726.53;;;-2.83;100.00
46267;BME280;31998;48.798;15.066;2022-12-29T00:54:20;95718.03;;;-2.92;100.00
46267;BME280;31998;48.798;15.066;2022-12-29T00:56:47;95714.19;;;-2.89;100.00
46267;BME280;31998;48.798;15.066;2022-12-29T00:59:13;95712.16;;;-2.87;100.00
46267;BME280;31998;48.798;15.066;2022-12-29T01:01:41;95711.34;;;-2.94;100.00
46267;BME280;31998;48.798;15.066;2022-12-29T01:04:08;95665.84;;;-3.28;100.00
46267;BME280;31998;48.798;15.066;2022-12-29T01:06:35;95669.69;;;-3.24;100.00
46267;BME280;31998;48.798;15.066;2022-12-29T01:09:01;95682.63;;;-3.22;100.00
46267;BME280;31998;48.798;15.066;2022-12-29T01:11:46;95651.06;;;-3.42;100.00
46267;BME280;31998;48.798;15.066;2022-12-29T01:14:11;95728.38;;;-2.90;100.00
46267;BME280;31998;48.798;15.066;2022-12-29T01:16:37;95722.50;;;-2.92;100.00
46267;BME280;31998;48.798;15.066;2022-12-29T01:19:03;95702.84;;;-2.90;100.00
46267;BME280;31998;48.798;15.066;2022-12-29T01:21:29;95701.44;;;-2.92;100.00
46267;BME280;31998;48.798;15.066;2022-12-29T01:23:54;95709.34;;;-2.92;100.00
46267;BME280;31998;48.798;15.066;2022-12-29T01:26:19;95711.97;;;-2.92;100.00
46267;BME280;31998;48.798;15.066;2022-12-29T01:28:45;95698.00;;;-2.99;100.00
46267;BME280;31998;48.798;15.066;2022-12-29T01:31:12;95693.94;;;-3.02;100.00
46267;BME280;31998;48.798;15.066;2022-12-29T01:33:39;95702.84;;;-2.96;100.00
46267;BME280;31998;48.798;15.066;2022-12-29T01:36:06;95705.50;;;-2.96;100.00
46267;BME280;31998;48.798;15.066;2022-12-29T01:38:33;95698.19;;;-3.01;100.00
46267;BME280;31998;48.798;15.066;2022-12-29T01:40:58;95703.88;;;-3.04;100.00
46267;BME280;31998;48.798;15.066;2022-12-29T01:43:56;95685.03;;;-3.14;100.00
46267;BME280;31998;48.798;15.066;2022-12-29T01:46:26;95701.25;;;-2.97;100.00
46267;BME280;31998;48.798;15.066;2022-12-29T01:51:51;95695.16;;;-2.91;100.00
46267;BME280;31998;48.798;15.066;2022-12-29T01:54:22;95698.00;;;-2.86;100.00
46267;BME280;31998;48.798;15.066;2022-12-29T01:56:52;95689.44;;;-2.82;100.00
46267;BME280;31998;48.798;15.066;2022-12-29T01:59:24;95669.03;;;-2.86;100.00
46267;BME280;31998;48.798;15.066;2022-12-29T02:01:51;95644.13;;;-2.97;100.00
46267;BME280;31998;48.798;15.066;2022-12-29T02:04:17;95641.28;;;-2.95;100.00
46267;BME280;31998;48.798;15.066;2022-12-29T02:07:02;95650.97;;;-2.76;100.00
46267;BME280;31998;48.798;15.066;2022-12-29T02:09:29;95669.19;;;-2.75;100.00
46267;BME280;31998;48.798;15.066;2022-12-29T02:11:56;95643.31;;;-2.97;100.00
46267;BME280;31998;48.798;15.066;2022-12-29T02:14:23;95668.59;;;-2.83;100.00
46267;BME280;31998;48.798;15.066;2022-12-29T02:17:08;95670.59;;;-2.72;100.00
46267;BME280;31998;48.798;15.066;2022-12-29T02:22:35;95675.06;;;-2.72;100.00
46267;BME280;31998;48.798;15.066;2022-12-29T02:36:02;95660.44;;;-2.62;100.00
46267;BME280;31998;48.798;15.066;2022-12-29T02:39:20;95662.66;;;-2.59;100.00
46267;BME280;31998;48.798;15.066;2022-12-29T02:41:33;95644.84;;;-2.70;100.00
46267;BME280;31998;48.798;15.066;2022-12-29T02:44:15;95648.91;;;-2.74;100.00
46267;BME280;31998;48.798;15.066;2022-12-29T02:46:53;95650.97;;;-2.76;100.00
46267;BME280;31998;48.798;15.066;2022-12-29T02:49:40;95636.19;;;-2.77;100.00
46267;BME280;31998;48.798;15.066;2022-12-29T02:52:16;95652.75;;;-2.70;100.00
46267;BME280;31998;48.798;15.066;2022-12-29T02:54:44;95625.22;;;-2.81;100.00
46267;BME280;31998;48.798;15.066;2022-12-29T02:57:27;95640.81;;;-2.66;100.00
46267;BME280;31998;48.798;15.066;2022-12-29T03:10:37;95644.06;;;-2.77;100.00
46267;BME280;31998;48.798;15.066;2022-12-29T03:13:39;95638.38;;;-2.74;100.00
46267;BME280;31998;48.798;15.066;2022-12-29T03:16:44;95622.41;;;-2.79;100.00
46267;BME280;31998;48.798;15.066;2022-12-29T03:19:15;95625.06;;;-2.79;100.00
46267;BME280;31998;48.798;15.066;2022-12-29T03:21:54;95631.09;;;-2.72;100.00
46267;BME280;31998;48.798;15.066;2022-12-29T03:24:44;95633.53;;;-2.70;100.00
46267;BME280;31998;48.798;15.066;2022-12-29T03:27:16;95622.56;;;-2.67;100.00
46267;BME280;31998;48.798;15.066;2022-12-29T03:29:47;95628.63;;;-2.60;100.00
46267;BME280;31998;48.798;15.066;2022-12-29T03:32:19;95634.06;;;-2.55;100.00
46267;BME280;31998;48.798;15.066;2022-12-29T03:34:46;95627.38;;;-2.58;100.00
46267;BME280;31998;48.798;15.066;2022-12-29T03:37:15;95629.44;;;-2.60;100.00
46267;BME280;31998;48.798;15.066;2022-12-29T03:39:42;95635.06;;;-2.50;100.00
46267;BME280;31998;48.798;15.066;2022-12-29T03:42:12;95631.63;;;-2.50;100.00
46267;BME280;31998;48.798;15.066;2022-12-29T03:44:42;95643.16;;;-2.44;100.00
46267;BME280;31998;48.798;15.066;2022-12-29T03:47:10;95624.56;;;-2.63;100.00
46267;BME280;31998;48.798;15.066;2022-12-29T03:49:36;95623.72;;;-2.57;100.00
46267;BME280;31998;48.798;15.066;2022-12-29T03:52:02;95634.25;;;-2.50;100.00
46267;BME280;31998;48.798;15.066;2022-12-29T03:54:29;95644.97;;;-2.45;100.00
46267;BME280;31998;48.798;15.066;2022-12-29T03:56:54;95630.41;;;-2.48;100.00
46267;BME280;31998;48.798;15.066;2022-12-29T03:59:19;95630.59;;;-2.49;100.00
46267;BME280;31998;48.798;15.066;2022-12-29T04:01:45;95624.50;;;-2.50;100.00
46267;BME280;31998;48.798;15.066;2022-12-29T04:04:11;95635.44;;;-2.39;100.00
46267;BME280;31998;48.798;15.066;2022-12-29T04:06:36;95647.94;;;-2.28;100.00
46267;BME280;31998;48.798;15.066;2022-12-29T04:09:02;95624.66;;;-2.38;100.00
46267;BME280;31998;48.798;15.066;2022-12-29T04:11:27;95638.84;;;-2.32;100.00
46267;BME280;31998;48.798;15.066;2022-12-29T04:13:53;95647.72;;;-2.27;100.00
46267;BME280;31998;48.798;15.066;2022-12-29T04:16:18;95649.94;;;-2.24;100.00
46267;BME280;31998;48.798;15.066;2022-12-29T04:18:44;95639.63;;;-2.32;100.00
46267;BME280;31998;48.798;15.066;2022-12-29T04:21:09;95641.03;;;-2.29;100.00
46267;BME280;31998;48.798;15.066;2022-12-29T04:23:37;95640.19;;;-2.23;100.00
46267;BME280;31998;48.798;15.066;2022-12-29T04:26:03;95641.00;;;-2.23;100.00
46267;BME280;31998;48.798;15.066;2022-12-29T04:28:29;95655.16;;;-2.17;100.00
46267;BME280;31998;48.798;15.066;2022-12-29T04:30:55;95646.28;;;-2.23;100.00
46267;BME280;31998;48.798;15.066;2022-12-29T04:33:21;95649.91;;;-2.17;100.00
46267;BME280;31998;48.798;15.066;2022-12-29T04:35:47;95646.22;;;-2.16;100.00
46267;BME280;31998;48.798;15.066;2022-12-29T04:38:13;95642.81;;;-2.23;100.00
46267;BME280;31998;48.798;15.066;2022-12-29T04:40:40;95658.84;;;-2.18;100.00
46267;BME280;31998;48.798;15.066;2022-12-29T04:43:06;95649.94;;;-2.24;100.00
46267;BME280;31998;48.798;15.066;2022-12-29T04:45:31;95641.22;;;-2.24;100.00
46267;BME280;31998;48.798;15.066;2022-12-29T04:47:56;95637.41;;;-2.28;100.00
46267;BME280;31998;48.798;15.066;2022-12-29T04:50:22;95638.25;;;-2.34;100.00
46267;BME280;31998;48.798;15.066;2022-12-29T04:52:47;95646.31;;;-2.29;100.00
46267;BME280;31998;48.798;15.066;2022-12-29T04:55:13;95645.72;;;-2.31;100.00
46267;BME280;31998;48.798;15.066;2022-12-29T04:57:38;95660.47;;;-2.24;100.00
46267;BME280;31998;48.798;15.066;2022-12-29T05:00:05;95650.38;;;-2.27;100.00
46267;BME280;31998;48.798;15.066;2022-12-29T05:02:30;95648.78;;;-2.34;100.00
46267;BME280;31998;48.798;15.066;2022-12-29T05:04:56;95639.06;;;-2.34;100.00
46267;BME280;31998;48.798;15.066;2022-12-29T05:07:21;95647.09;;;-2.29;100.00
46267;BME280;31998;48.798;15.066;2022-12-29T05:09:47;95650.75;;;-2.23;100.00
46267;BME280;31998;48.798;15.066;2022-12-29T05:12:12;95654.44;;;-2.31;100.00
46267;BME280;31998;48.798;15.066;2022-12-29T05:14:38;95639.25;;;-2.35;100.00
46267;BME280;31998;48.798;15.066;2022-12-29T05:17:03;95644.28;;;-2.27;100.00
46267;BME280;31998;48.798;15.066;2022-12-29T05:19:29;95654.81;;;-2.21;100.00
46267;BME280;31998;48.798;15.066;2022-12-29T05:21:54;95657.22;;;-2.19;100.00
46267;BME280;31998;48.798;15.066;2022-12-29T05:24:20;95665.28;;;-2.07;100.00
46267;BME280;31998;48.798;15.066;2022-12-29T05:26:50;95639.72;;;-2.07;100.00
46267;BME280;31998;48.798;15.066;2022-12-29T05:29:16;95647.81;;;-2.02;100.00
46267;BME280;31998;48.798;15.066;2022-12-29T05:31:41;95636.81;;;-1.99;100.00
46267;BME280;31998;48.798;15.066;2022-12-29T05:34:08;95626.91;;;-2.03;100.00
46267;BME280;31998;48.798;15.066;2022-12-29T05:36:34;95642.00;;;-1.85;100.00
46267;BME280;31998;48.798;15.066;2022-12-29T05:38:59;95633.50;;;-1.87;100.00
46267;BME280;31998;48.798;15.066;2022-12-29T05:41:24;95618.53;;;-1.94;100.00
46267;BME280;31998;48.798;15.066;2022-12-29T05:43:50;95628.56;;;-1.77;100.00
46267;BME280;31998;48.798;15.066;2022-12-29T05:46:16;95633.63;;;-1.76;100.00
46267;BME280;31998;48.798;15.066;2022-12-29T05:48:41;95613.38;;;-1.82;100.00
46267;BME280;31998;48.798;15.066;2022-12-29T05:51:07;95634.16;;;-1.67;100.00
46267;BME280;31998;48.798;15.066;2022-12-29T05:53:32;95641.22;;;-1.61;100.00
46267;BME280;31998;48.798;15.066;2022-12-29T05:55:57;95626.84;;;-1.65;100.00
46267;BME280;31998;48.798;15.066;2022-12-29T05:58:23;95640.78;;;-1.58;100.00
46267;BME280;31998;48.798;15.066;2022-12-29T06:00:48;95626.63;;;-1.64;100.00
46267;BME280;31998;48.798;15.066;2022-12-29T06:03:14;95619.97;;;-1.66;100.00
46267;BME280;31998;48.798;15.066;2022-12-29T06:05:39;95631.44;;;-1.54;100.00
46267;BME280;31998;48.798;15.066;2022-12-29T06:08:05;95607.78;;;-1.67;100.00
46267;BME280;31998;48.798;15.066;2022-12-29T06:10:30;95609.78;;;-1.62;100.00
46267;BME280;31998;48.798;15.066;2022-12-29T06:12:56;95610.22;;;-1.66;100.00
46267;BME280;31998;48.798;15.066;2022-12-29T06:15:21;95620.94;;;-1.60;100.00
46267;BME280;31998;48.798;15.066;2022-12-29T06:17:47;95618.97;;;-1.72;100.00
46267;BME280;31998;48.798;15.066;2022-12-29T06:20:12;95628.84;;;-1.60;100.00
46267;BME280;31998;48.798;15.066;2022-12-29T06:22:38;95611.00;;;-1.65;100.00
46267;BME280;31998;48.798;15.066;2022-12-29T06:25:04;95614.25;;;-1.63;100.00
46267;BME280;31998;48.798;15.066;2022-12-29T06:27:31;95609.41;;;-1.66;100.00
46267;BME280;31998;48.798;15.066;2022-12-29T06:29:56;95607.16;;;-1.62;100.00
46267;BME280;31998;48.798;15.066;2022-12-29T06:32:21;95613.81;;;-1.60;100.00
46267;BME280;31998;48.798;15.066;2022-12-29T06:34:47;95595.63;;;-1.68;100.00
46267;BME280;31998;48.798;15.066;2022-12-29T06:37:12;95587.72;;;-1.68;100.00
46267;BME280;31998;48.798;15.066;2022-12-29T06:39:38;95619.44;;;-1.50;100.00
46267;BME280;31998;48.798;15.066;2022-12-29T06:42:03;95602.81;;;-1.57;100.00
46267;BME280;31998;48.798;15.066;2022-12-29T06:44:29;95597.53;;;-1.57;100.00
46267;BME280;31998;48.798;15.066;2022-12-29T06:46:55;95607.63;;;-1.47;100.00
46267;BME280;31998;48.798;15.066;2022-12-29T06:49:20;95612.84;;;-1.41;100.00
46267;BME280;31998;48.798;15.066;2022-12-29T06:51:46;95600.47;;;-1.40;100.00
46267;BME280;31998;48.798;15.066;2022-12-29T06:54:12;95604.72;;;-1.39;100.00
46267;BME280;31998;48.798;15.066;2022-12-29T06:56:37;95606.38;;;-1.45;100.00
46267;BME280;31998;48.798;15.066;2022-12-29T06:59:03;95618.88;;;-1.33;100.00
46267;BME280;31998;48.798;15.066;2022-12-29T07:01:29;95621.69;;;-1.28;100.00
46267;BME280;31998;48.798;15.066;2022-12-29T07:03:54;95587.91;;;-1.45;100.00
46267;BME280;31998;48.798;15.066;2022-12-29T07:06:20;95619.25;;;-1.30;100.00
46267;BME280;31998;48.798;15.066;2022-12-29T07:08:45;95609.50;;;-1.29;100.00
46267;BME280;31998;48.798;15.066;2022-12-29T07:11:11;95610.25;;;-1.22;100.00
46267;BME280;31998;48.798;15.066;2022-12-29T07:13:36;95620.41;;;-1.26;100.00
46267;BME280;31998;48.798;15.066;2022-12-29T07:16:11;95628.88;;;-1.17;100.00
46267;BME280;31998;48.798;15.066;2022-12-29T07:18:37;95620.81;;;-1.22;100.00
46267;BME280;31998;48.798;15.066;2022-12-29T07:21:03;95613.31;;;-1.25;100.00
46267;BME280;31998;48.798;15.066;2022-12-29T07:23:29;95624.03;;;-1.20;100.00
46267;BME280;31998;48.798;15.066;2022-12-29T07:26:02;95628.06;;;-1.18;100.00
46267;BME280;31998;48.798;15.066;2022-12-29T07:28:28;95626.75;;;-1.08;100.00
46267;BME280;31998;48.798;15.066;2022-12-29T07:30:53;95635.81;;;-0.98;100.00
46267;BME280;31998;48.798;15.066;2022-12-29T07:33:19;95624.81;;;-0.95;100.00
46267;BME280;31998;48.798;15.066;2022-12-29T07:35:44;95636.25;;;-0.83;100.00
46267;BME280;31998;48.798;15.066;2022-12-29T07:38:10;95637.56;;;-0.73;100.00
46267;BME280;31998;48.798;15.066;2022-12-29T07:40:36;95630.69;;;-0.74;100.00
46267;BME280;31998;48.798;15.066;2022-12-29T07:43:01;95648.75;;;-0.71;100.00
46267;BME280;31998;48.798;15.066;2022-12-29T07:45:26;95641.75;;;-0.66;100.00
46267;BME280;31998;48.798;15.066;2022-12-29T07:47:52;95624.66;;;-0.63;100.00
46267;BME280;31998;48.798;15.066;2022-12-29T07:50:18;95520.41;;;-1.34;100.00
46267;BME280;31998;48.798;15.066;2022-12-29T07:52:44;95638.28;;;-0.48;100.00
46267;BME280;31998;48.798;15.066;2022-12-29T07:55:11;95586.22;;;-0.77;100.00
46267;BME280;31998;48.798;15.066;2022-12-29T07:57:36;95641.38;;;-0.33;100.00
46267;BME280;31998;48.798;15.066;2022-12-29T08:00:03;95620.97;;;-0.44;100.00
46267;BME280;31998;48.798;15.066;2022-12-29T08:02:29;95626.31;;;-0.32;100.00
46267;BME280;31998;48.798;15.066;2022-12-29T08:04:55;95640.19;;;-0.18;100.00
46267;BME280;31998;48.798;15.066;2022-12-29T08:07:23;95524.59;;;-0.90;100.00
46267;BME280;31998;48.798;15.066;2022-12-29T08:09:48;95579.63;;;-0.38;100.00
46267;BME280;31998;48.798;15.066;2022-12-29T08:12:13;95516.91;;;-0.79;100.00
46267;BME280;31998;48.798;15.066;2022-12-29T08:14:39;95520.56;;;-0.62;100.00
46267;BME280;31998;48.798;15.066;2022-12-29T08:17:04;95545.03;;;-0.37;100.00
46267;BME280;31998;48.798;15.066;2022-12-29T08:19:30;95512.31;;;-0.54;100.00
46267;BME280;31998;48.798;15.066;2022-12-29T08:21:55;95584.75;;;-0.13;100.00
46267;BME280;31998;48.798;15.066;2022-12-29T08:24:23;95572.47;;;-0.19;100.00
46267;BME280;31998;48.798;15.066;2022-12-29T08:26:51;95535.78;;;-0.46;100.00
46267;BME280;31998;48.798;15.066;2022-12-29T08:29:17;95551.66;;;-0.16;100.00
46267;BME280;31998;48.798;15.066;2022-12-29T08:31:42;95572.06;;;0.07;100.00
46267;BME280;31998;48.798;15.066;2022-12-29T08:34:14;95576.25;;;0.26;100.00
46267;BME280;31998;48.798;15.066;2022-12-29T08:36:42;95574.28;;;0.45;100.00
46267;BME280;31998;48.798;15.066;2022-12-29T08:39:09;95590.09;;;0.75;100.00
46267;BME280;31998;48.798;15.066;2022-12-29T08:41:35;95627.41;;;1.09;100.00
46267;BME280;31998;48.798;15.066;2022-12-29T08:44:00;95601.75;;;0.98;100.00
46267;BME280;31998;48.798;15.066;2022-12-29T08:46:28;95570.16;;;0.85;100.00
46267;BME280;31998;48.798;15.066;2022-12-29T08:48:54;95521.34;;;0.80;100.00
46267;BME280;31998;48.798;15.066;2022-12-29T08:51:19;95642.56;;;1.49;100.00
46267;BME280;31998;48.798;15.066;2022-12-29T08:53:45;95513.66;;;0.67;100.00
46267;BME280;31998;48.798;15.066;2022-12-29T08:56:11;95579.44;;;1.22;100.00
46267;BME280;31998;48.798;15.066;2022-12-29T08:58:37;95516.25;;;0.91;100.00
46267;BME280;31998;48.798;15.066;2022-12-29T09:01:03;95528.31;;;1.10;100.00
46267;BME280;31998;48.798;15.066;2022-12-29T09:03:29;95517.13;;;1.20;100.00
46267;BME280;31998;48.798;15.066;2022-12-29T09:05:55;95593.44;;;1.86;100.00
46267;BME280;31998;48.798;15.066;2022-12-29T09:08:22;95638.84;;;2.30;100.00
46267;BME280;31998;48.798;15.066;2022-12-29T09:10:47;95515.13;;;1.55;100.00
46267;BME280;31998;48.798;15.066;2022-12-29T09:13:13;95559.75;;;1.87;100.00
46267;BME280;31998;48.798;15.066;2022-12-29T09:15:39;95541.72;;;1.89;100.00
46267;BME280;31998;48.798;15.066;2022-12-29T09:18:07;95625.34;;;2.49;100.00
46267;BME280;31998;48.798;15.066;2022-12-29T09:20:33;95582.28;;;2.30;100.00
46267;BME280;31998;48.798;15.066;2022-12-29T09:22:59;95628.50;;;2.62;100.00
46267;BME280;31998;48.798;15.066;2022-12-29T09:25:25;95532.94;;;2.17;100.00
46267;BME280;31998;48.798;15.066;2022-12-29T09:27:51;95638.94;;;3.03;100.00
46267;BME280;31998;48.798;15.066;2022-12-29T09:30:22;95619.84;;;3.06;100.00
46267;BME280;31998;48.798;15.066;2022-12-29T09:32:48;95633.38;;;3.21;100.00
46267;BME280;31998;48.798;15.066;2022-12-29T09:35:15;95604.34;;;3.19;100.00
46267;BME280;31998;48.798;15.066;2022-12-29T09:37:40;95563.44;;;3.04;100.00
46267;BME280;31998;48.798;15.066;2022-12-29T09:40:07;95622.44;;;3.39;100.00
46267;BME280;31998;48.798;15.066;2022-12-29T09:43:05;95593.75;;;3.41;100.00
46267;BME280;31998;48.798;15.066;2022-12-29T09:45:38;95532.19;;;3.11;100.00
46267;BME280;31998;48.798;15.066;2022-12-29T09:48:14;95530.22;;;3.23;100.00
46267;BME280;31998;48.798;15.066;2022-12-29T09:50:44;95603.75;;;3.78;100.00
46267;BME280;31998;48.798;15.066;2022-12-29T09:53:46;95568.91;;;3.58;100.00
46267;BME280;31998;48.798;15.066;2022-12-29T09:56:19;95563.72;;;3.68;100.00
46267;BME280;31998;48.798;15.066;2022-12-29T10:01:31;95578.91;;;3.94;100.00
46267;BME280;31998;48.798;15.066;2022-12-29T10:04:00;95560.22;;;3.89;100.00
46267;BME280;31998;48.798;15.066;2022-12-29T10:06:48;95588.16;;;4.14;100.00
46267;BME280;31998;48.798;15.066;2022-12-29T10:09:22;95586.22;;;4.31;100.00
46267;BME280;31998;48.798;15.066;2022-12-29T10:25:38;95565.91;;;4.94;100.00
46267;BME280;31998;48.798;15.066;2022-12-29T10:28:16;95564.38;;;5.08;100.00
46267;BME280;31998;48.798;15.066;2022-12-29T10:30:43;95557.00;;;5.26;100.00
46267;BME280;31998;48.798;15.066;2022-12-29T10:33:18;95516.13;;;5.10;100.00
46267;BME280;31998;48.798;15.066;2022-12-29T10:35:45;95490.03;;;5.17;100.00
46267;BME280;31998;48.798;15.066;2022-12-29T10:38:19;95552.41;;;5.73;100.00
46267;BME280;31998;48.798;15.066;2022-12-29T10:43:26;95536.22;;;6.11;100.00
46267;BME280;31998;48.798;15.066;2022-12-29T10:45:55;95559.50;;;6.31;100.00
46267;BME280;31998;48.798;15.066;2022-12-29T10:48:31;95543.75;;;6.39;100.00
46267;BME280;31998;48.798;15.066;2022-12-29T10:50:59;95544.84;;;6.59;100.00
46267;BME280;31998;48.798;15.066;2022-12-29T10:53:38;95553.91;;;6.93;100.00
46267;BME280;31998;48.798;15.066;2022-12-29T10:56:14;95511.91;;;6.94;100.00
46267;BME280;31998;48.798;15.066;2022-12-29T10:58:43;95511.31;;;7.17;100.00
46267;BME280;31998;48.798;15.066;2022-12-29T11:01:12;95511.56;;;7.16;100.00
46267;BME280;31998;48.798;15.066;2022-12-29T11:03:57;95505.41;;;7.20;100.00
46267;BME280;31998;48.798;15.066;2022-12-29T11:06:28;95508.53;;;7.43;100.00
46267;BME280;31998;48.798;15.066;2022-12-29T11:08:59;95455.84;;;7.33;100.00
46267;BME280;31998;48.798;15.066;2022-12-29T11:11:36;95493.59;;;7.81;100.00
46267;BME280;31998;48.798;15.066;2022-12-29T11:16:36;95462.38;;;8.05;100.00
46267;BME280;31998;48.798;15.066;2022-12-29T11:19:02;95472.09;;;8.35;100.00
46267;BME280;31998;48.798;15.066;2022-12-29T11:21:33;95460.53;;;8.40;100.00
46267;BME280;31998;48.798;15.066;2022-12-29T11:24:17;95439.34;;;8.38;100.00
46267;BME280;31998;48.798;15.066;2022-12-29T11:26:44;95477.25;;;8.90;100.00
46267;BME280;31998;48.798;15.066;2022-12-29T11:29:20;95494.91;;;9.20;100.00
46267;BME280;31998;48.798;15.066;2022-12-29T11:31:49;95495.19;;;9.42;100.00
46267;BME280;31998;48.798;15.066;2022-12-29T11:34:23;95485.34;;;9.57;100.00
46267;BME280;31998;48.798;15.066;2022-12-29T11:36:54;95485.72;;;9.69;100.00
46267;BME280;31998;48.798;15.066;2022-12-29T11:39:36;95472.56;;;9.48;100.00
46267;BME280;31998;48.798;15.066;2022-12-29T11:42:12;95475.44;;;9.33;100.00
46267;BME280;31998;48.798;15.066;2022-12-29T11:44:43;95451.88;;;9.25;100.00
46267;BME280;31998;48.798;15.066;2022-12-29T11:47:13;95441.47;;;9.18;100.00
46267;BME280;31998;48.798;15.066;2022-12-29T11:49:39;95412.72;;;9.00;100.00
46267;BME280;31998;48.798;15.066;2022-12-29T11:52:06;95421.56;;;9.01;100.00
46267;BME280;31998;48.798;15.066;2022-12-29T11:54:34;95342.16;;;8.52;100.00
46267;BME280;31998;48.798;15.066;2022-12-29T11:57:15;95454.06;;;9.23;100.00
46267;BME280;31998;48.798;15.066;2022-12-29T12:00:09;95454.50;;;9.73;100.00
46267;BME280;31998;48.798;15.066;2022-12-29T12:02:48;95438.56;;;10.33;100.00
46267;BME280;31998;48.798;15.066;2022-12-29T12:05:43;95456.34;;;10.94;100.00
46267;BME280;31998;48.798;15.066;2022-12-29T12:08:20;95419.16;;;11.10;100.00
46267;BME280;31998;48.798;15.066;2022-12-29T12:11:10;95402.50;;;10.94;100.00
46267;BME280;31998;48.798;15.066;2022-12-29T12:13:44;95456.25;;;10.99;100.00
46267;BME280;31998;48.798;15.066;2022-12-29T12:16:19;95403.81;;;10.83;100.00
46267;BME280;31998;48.798;15.066;2022-12-29T12:18:56;95451.41;;;11.29;100.00
46267;BME280;31998;48.798;15.066;2022-12-29T12:21:43;95439.63;;;11.25;100.00
46267;BME280;31998;48.798;15.066;2022-12-29T12:27:15;95424.56;;;11.10;100.00
46267;BME280;31998;48.798;15.066;2022-12-29T12:33:44;95444.69;;;11.26;100.00
46267;BME280;31998;48.798;15.066;2022-12-29T12:36:37;95360.03;;;10.77;100.00
46267;BME280;31998;48.798;15.066;2022-12-29T12:41:59;95388.63;;;10.59;100.00
46267;BME280;31998;48.798;15.066;2022-12-29T12:58:59;95423.22;;;10.66;100.00
46267;BME280;31998;48.798;15.066;2022-12-29T13:07:07;95423.00;;;10.63;100.00
46267;BME280;31998;48.798;15.066;2022-12-29T13:31:00;95436.63;;;10.52;100.00
46267;BME280;31998;48.798;15.066;2022-12-29T13:34:09;95433.09;;;10.71;100.00
46267;BME280;31998;48.798;15.066;2022-12-29T13:36:52;95426.59;;;10.58;100.00
46267;BME280;31998;48.798;15.066;2022-12-29T13:39:33;95432.44;;;10.46;100.00
46267;BME280;31998;48.798;15.066;2022-12-29T13:42:01;95428.00;;;10.37;100.00
46267;BME280;31998;48.798;15.066;2022-12-29T13:44:34;95441.59;;;10.45;100.00
46267;BME280;31998;48.798;15.066;2022-12-29T13:47:19;95416.47;;;10.17;100.00
46267;BME280;31998;48.798;15.066;2022-12-29T13:49:46;95383.16;;;9.99;100.00
46267;BME280;31998;48.798;15.066;2022-12-29T13:52:21;95446.34;;;10.35;100.00
46267;BME280;31998;48.798;15.066;2022-12-29T13:55:07;95454.34;;;10.21;100.00
46267;BME280;31998;48.798;15.066;2022-12-29T13:58:04;95443.75;;;9.92;100.00
46267;BME280;31998;48.798;15.066;2022-12-29T14:00:43;95410.78;;;9.67;100.00
46267;BME280;31998;48.798;15.066;2022-12-29T14:06:24;95458.13;;;10.01;100.00
46267;BME280;31998;48.798;15.066;2022-12-29T14:08:57;95461.69;;;9.96;100.00
46267;BME280;31998;48.798;15.066;2022-12-29T14:11:35;95359.94;;;9.33;100.00
46267;BME280;31998;48.798;15.066;2022-12-29T14:14:21;95456.97;;;10.07;100.00
46267;BME280;31998;48.798;15.066;2022-12-29T14:16:48;95418.25;;;9.89;100.00
46267;BME280;31998;48.798;15.066;2022-12-29T14:19:30;95440.41;;;10.00;100.00
46267;BME280;31998;48.798;15.066;2022-12-29T14:22:04;95459.22;;;10.19;100.00
46267;BME280;31998;48.798;15.066;2022-12-29T14:37:27;95465.69;;;10.18;100.00
46267;BME280;31998;48.798;15.066;2022-12-29T14:40:04;95473.31;;;10.11;100.00
46267;BME280;31998;48.798;15.066;2022-12-29T14:42:31;95484.59;;;9.94;100.00
46267;BME280;31998;48.798;15.066;2022-12-29T14:45:08;95466.13;;;9.87;100.00
46267;BME280;31998;48.798;15.066;2022-12-29T14:47:47;95470.84;;;9.95;100.00
46267;BME280;31998;48.798;15.066;2022-12-29T14:53:00;95466.63;;;9.70;100.00
46267;BME280;31998;48.798;15.066;2022-12-29T14:58:18;95479.84;;;9.67;100.00
46267;BME280;31998;48.798;15.066;2022-12-29T15:00:46;95483.19;;;9.59;100.00
46267;BME280;31998;48.798;15.066;2022-12-29T15:05:53;95479.66;;;9.39;100.00